KLBF/LBF METAR and TAF weather

Enter ICAO airport designator
Station Type Date Time Source
KLBF METAR 2019/10/23 06:53 UTC NOAA

KLBF 230653Z AUTO 12003KT 10SM OVC075 10/07 A2978 RMK AO2 SLP080 T01000067


Station Type Date Time Source
KLBF Decoded METAR 2019/10/23 06:53 UTC NOAA

NORTH PLATTE REGIONAL AIRPORT , NE, United States (KLBF) 41-07N 100-40W 847M
Oct 23, 2019 - 02:53 AM EDT / 2019.10.23 0653 UTC
Wind: from the ESE (120 degrees) at 3 MPH (3 KT):0
Visibility: 10 mile(s):0
Sky conditions: overcast
Temperature: 50.0 F (10.0 C)
Dew Point: 44.1 F (6.7 C)
Relative Humidity: 79%
Pressure (altimeter): 29.78 in. Hg (1008 hPa)
ob: KLBF 230653Z AUTO 12003KT 10SM OVC075 10/07 A2978 RMK AO2 SLP080 T01000067
cycle: 7

Station Type Date Time Source
KLBF TAF 2019/10/23 06:22 UTC NOAA

TAF KLBF 230520Z 2306/2406 24010KT P6SM BKN090 BKN110
FM230900 29010KT P6SM SCT120 WS020/30040KT
FM231100 30008KT P6SM SCT200
FM231500 30015G23KT P6SM SCT250
FM232300 34017KT P6SM SCT080
FM240300 36006KT P6SM SCT200

Example: see airport list